Pagina principală
METAR-TAF:

METAR-TAF

Aeroporturi :

St. Francis, Kansas, Statele Unite ale Americii

Latitudine: 39-45-40N, longitudine: 101-47-45W, elevație: 1040 m

Observații meteo curente

Raportul a fost făcut în urmă cu 36 de minute, la 12:55 UTC
Vânt 12 kt de la Sud/Sud-est
Temperatură 19°C
Umiditate 78%
Presiune 1011 hPa
Vizibilitate: 16.1 km
Cer senin

METAR: KSYF 151255Z AUTO 16012KT 10SM CLR 19/15 A2986 RMK AO2

Ora: 08:31 (13:31 UTC)


TAF: lipsă

Observații și prognoze meteo pentru peste 4.000 de aeroporturi (rapoarte METAR și TAF).

Stațiile disponibile sunt reprezentate pe hartă prin puncte galbene și roșii.

Țineți indicatorul mouse-ului pe punctul dorit pentru a vedea denumirea stației.

Apoi, faceți clic pentru a vedea observațiile și prognozele meteorologice.

Pentru a schimba harta: Pentru mărire, faceți clic pe butoanele verzi cu cruce neagră; pentru micșorare, pe butonul verde cu o liniuță; pentru hărți învecinate, pe săgețile verzi.


METAR-TAF: